This is the latest recevied weather packets stored in our database for station/object EA4URC-13. If no packets are shown the sender has not sent any weather packets the latest 10 day(s).
| Time | Temp. | Humidity | Pressure | Rain* | Wind** | Luminosity | Snow |
|---|---|---|---|---|---|---|---|
| 1777628638 | 17.78° C | 52% | 1010.9 hPa | - | - | - | - |
| 1777627730 | 16.67° C | 53% | 1011.3 hPa | - | - | - | - |
| 1777626810 | 15.56° C | 57% | 1011.9 hPa | - | - | - | - |
| 1777625910 | 15.56° C | 57% | 1011.8 hPa | - | - | - | - |
| 1777625004 | 14.44° C | 60% | 1012.1 hPa | - | - | - | - |
| 1777624104 | 13.89° C | 61% | 1012.1 hPa | - | - | - | - |
| 1777623522 | 13.33° C | 62% | 1012.2 hPa | - | - | - | - |
| 1777623191 | 13.33° C | 62% | 1012.2 hPa | - | - | - | - |
| 1777622291 | 13.33° C | 63% | 1012.1 hPa | - | - | - | - |
| 1777621378 | 12.78° C | 64% | 1012.1 hPa | - | - | - | - |
| 1777620478 | 12.78° C | 65% | 1012 hPa | - | - | - | - |
| 1777619578 | 13.33° C | 63% | 1011.5 hPa | - | - | - | - |
| 1777618678 | 13.33° C | 64% | 1011.8 hPa | - | - | - | - |
| 1777617778 | 12.78° C | 64% | 1012 hPa | - | - | - | - |
| 1777616878 | 12.78° C | 63% | 1011.7 hPa | - | - | - | - |
| 1777615978 | 12.78° C | 64% | 1011.8 hPa | - | - | - | - |
| 1777615069 | 12.78° C | 63% | 1011.7 hPa | - | - | - | - |
| 1777613363 | 13.33° C | 63% | 1011.2 hPa | - | - | - | - |
| 1777612463 | 12.22° C | 65% | 1011.2 hPa | - | - | - | - |
| 1777611563 | 12.78° C | 64% | 1011 hPa | - | - | - | - |
| 1777610663 | 12.22° C | 66% | 1011.1 hPa | - | - | - | - |
| 1777609763 | 12.22° C | 67% | 1011.1 hPa | - | - | - | - |
| 1777608863 | 11.67° C | 68% | 1011.3 hPa | - | - | - | - |
| 1777607963 | 11.67° C | 67% | 1011.3 hPa | - | - | - | - |
| 1777607063 | 12.22° C | 66% | 1011 hPa | - | - | - | - |
* Rain since midnight (hover to see other rain measurements)
** Current wind speed in m/s (hover to see current wind gust speed)